createdAt,value
2023-10-09T00:01:25.474Z,100445.06
2023-10-09T00:03:30.110Z,100446.72
2023-10-09T00:05:47.983Z,100460.75
2023-10-09T00:07:50.987Z,100443.25
2023-10-09T00:09:56.812Z,100439.38
2023-10-09T00:12:01.852Z,100421.97
2023-10-09T00:14:07.181Z,100412.06
2023-10-09T00:16:15.724Z,100412.63
2023-10-09T00:18:23.521Z,100386.84
2023-10-09T00:20:40.030Z,100426.22
2023-10-09T00:22:44.881Z,100486.75
2023-10-09T00:24:48.386Z,100429.00
2023-10-09T00:26:53.041Z,100419.56
2023-10-09T00:28:55.668Z,100375.59
2023-10-09T00:30:58.189Z,100385.97
2023-10-09T00:33:05.470Z,100378.84
2023-10-09T00:35:27.020Z,100401.66
2023-10-09T00:37:35.802Z,100413.06
2023-10-09T00:39:38.218Z,100475.97
2023-10-09T00:41:43.616Z,100382.78
2023-10-09T00:43:46.545Z,100390.06
2023-10-09T00:45:52.419Z,100413.13
2023-10-09T00:48:00.424Z,100406.47
2023-10-09T00:50:22.444Z,100419.75
2023-10-09T00:52:41.186Z,100377.00
2023-10-09T00:54:45.981Z,100401.72
2023-10-09T00:56:58.879Z,100430.63
2023-10-09T00:59:23.333Z,100449.78
2023-10-09T01:01:29.801Z,100426.91
2023-10-09T01:03:35.320Z,100424.56
2023-10-09T01:05:40.744Z,100399.19
2023-10-09T01:07:45.969Z,100385.03
2023-10-09T01:09:52.180Z,100377.31
2023-10-09T01:12:01.638Z,100360.50
2023-10-09T01:14:10.313Z,100348.88
2023-10-09T01:16:17.379Z,100362.53
2023-10-09T01:18:21.591Z,100459.97
2023-10-09T01:20:31.885Z,100377.78
2023-10-09T01:22:34.929Z,100360.44
2023-10-09T01:24:40.240Z,100382.88
2023-10-09T01:26:48.153Z,100363.09
2023-10-09T01:28:51.086Z,100363.00
2023-10-09T01:30:53.743Z,100377.28
2023-10-09T01:32:59.616Z,100376.28
2023-10-09T01:35:02.559Z,100371.47
2023-10-09T01:37:30.356Z,100364.59
2023-10-09T01:39:33.358Z,100392.06
2023-10-09T01:41:36.504Z,100447.22
2023-10-09T01:43:40.390Z,100403.31
2023-10-09T01:45:48.296Z,100361.69
2023-10-09T01:47:57.484Z,100351.50
2023-10-09T01:50:00.258Z,100364.38
2023-10-09T01:52:10.137Z,100385.34
2023-10-09T01:54:18.635Z,100422.72
2023-10-09T01:56:21.312Z,100373.47
2023-10-09T01:58:23.842Z,100373.25
2023-10-09T02:00:31.031Z,100382.19
2023-10-09T02:02:36.316Z,100368.88
2023-10-09T02:04:42.115Z,100392.22
2023-10-09T02:06:44.568Z,100407.31
2023-10-09T02:08:53.241Z,100395.72
2023-10-09T02:10:58.212Z,100356.56
2023-10-09T02:13:08.537Z,100308.28
2023-10-09T02:15:17.272Z,100323.75
2023-10-09T02:17:20.567Z,100333.22
2023-10-09T02:19:32.593Z,100389.59
2023-10-09T02:21:35.832Z,100333.78
2023-10-09T02:23:51.639Z,100342.53
2023-10-09T02:26:08.083Z,100378.06
2023-10-09T02:28:19.436Z,100342.09
2023-10-09T02:30:31.358Z,100341.34
2023-10-09T02:32:35.210Z,100312.69
2023-10-09T02:34:39.957Z,100298.03
2023-10-09T02:36:44.202Z,100304.88
2023-10-09T02:38:50.186Z,100320.28
2023-10-09T02:41:05.207Z,100396.38
2023-10-09T02:43:19.576Z,100352.28
2023-10-09T02:45:30.629Z,100322.53
2023-10-09T02:47:39.828Z,100312.75
2023-10-09T02:49:42.272Z,100247.72
2023-10-09T02:51:50.442Z,100334.59
2023-10-09T02:54:20.639Z,100302.25
2023-10-09T02:56:39.320Z,100303.03
2023-10-09T02:58:42.308Z,100359.19
2023-10-09T03:00:46.475Z,100359.88
2023-10-09T03:02:51.764Z,100285.38
2023-10-09T03:04:56.899Z,100276.88
2023-10-09T03:07:00.875Z,100336.41
2023-10-09T03:09:17.860Z,100357.72
2023-10-09T03:11:20.813Z,100281.31
2023-10-09T03:13:23.553Z,100246.38
2023-10-09T03:15:26.177Z,100266.91
2023-10-09T03:17:29.238Z,100239.09
2023-10-09T03:19:39.643Z,100218.78
2023-10-09T03:21:43.920Z,100232.13
2023-10-09T03:23:53.636Z,100225.16
2023-10-09T03:26:04.029Z,100204.75
2023-10-09T03:28:14.222Z,100277.19
2023-10-09T03:30:25.156Z,100251.59
2023-10-09T03:32:28.549Z,100196.25
2023-10-09T03:34:32.921Z,100236.72
2023-10-09T03:36:40.422Z,100260.00
2023-10-09T03:38:44.234Z,100255.94
2023-10-09T03:40:50.619Z,100249.88
2023-10-09T03:42:54.428Z,100174.44
2023-10-09T03:44:59.291Z,100238.09
2023-10-09T03:47:03.894Z,100185.97
2023-10-09T03:49:12.280Z,100210.06
2023-10-09T03:51:17.168Z,100201.53
2023-10-09T03:53:20.814Z,100199.69
2023-10-09T03:55:29.429Z,100174.78
2023-10-09T03:57:32.566Z,100138.38
2023-10-09T03:59:35.822Z,100166.25
2023-10-09T04:01:42.444Z,100156.78
2023-10-09T04:03:46.562Z,100191.53
2023-10-09T04:05:53.264Z,100193.84
2023-10-09T04:07:59.674Z,100214.34
2023-10-09T04:10:25.038Z,100181.72
2023-10-09T04:12:28.081Z,100169.75
2023-10-09T04:14:34.659Z,100190.44
2023-10-09T04:16:52.854Z,100255.69
2023-10-09T04:18:58.137Z,100207.00
2023-10-09T04:21:19.830Z,100186.06
2023-10-09T04:23:36.662Z,100190.16
2023-10-09T04:25:47.209Z,100193.94
2023-10-09T04:27:54.925Z,100177.13
2023-10-09T04:29:58.319Z,100130.38
2023-10-09T04:32:02.155Z,100178.78
2023-10-09T04:34:30.358Z,100116.34
2023-10-09T04:36:48.269Z,100178.41
2023-10-09T04:39:17.576Z,100167.47
2023-10-09T04:41:29.270Z,100176.94
2023-10-09T04:43:34.882Z,100135.03
2023-10-09T04:45:56.857Z,100120.53
2023-10-09T04:48:00.020Z,100115.91
2023-10-09T04:50:04.020Z,100108.94
2023-10-09T04:52:10.745Z,100155.59
2023-10-09T04:54:17.805Z,100206.41
2023-10-09T04:56:25.706Z,100101.78
2023-10-09T04:58:28.920Z,100123.81
2023-10-09T05:00:32.081Z,100107.34
2023-10-09T05:02:38.017Z,100113.31
2023-10-09T05:04:41.390Z,100111.50
2023-10-09T05:06:51.532Z,100209.72
2023-10-09T05:08:56.173Z,100134.25
2023-10-09T05:11:02.255Z,100110.50
2023-10-09T05:13:10.432Z,100087.75
2023-10-09T05:15:15.211Z,100069.69
2023-10-09T05:17:17.872Z,100079.53
2023-10-09T05:19:43.723Z,100090.78
2023-10-09T05:21:47.084Z,100081.81
2023-10-09T05:28:27.393Z,100059.06
2023-10-09T05:44:20.781Z,100076.72
2023-10-09T05:55:21.294Z,100130.16
2023-10-09T06:06:04.749Z,100160.00
2023-10-09T06:12:35.235Z,100168.25
2023-10-09T06:19:09.563Z,100115.91
2023-10-09T06:22:28.393Z,100214.53
2023-10-09T06:24:43.984Z,100208.38
2023-10-09T06:27:00.444Z,100119.69
2023-10-09T06:29:32.273Z,100145.81
2023-10-09T06:31:56.677Z,100086.88
2023-10-09T06:34:17.513Z,100100.09
2023-10-09T06:36:20.418Z,100065.16
2023-10-09T06:38:25.147Z,100101.06
2023-10-09T06:40:40.502Z,100098.66
2023-10-09T06:42:43.441Z,100139.78
2023-10-09T06:44:55.410Z,100081.81
2023-10-09T06:47:09.520Z,100073.53
2023-10-09T06:49:30.566Z,100100.97
2023-10-09T06:51:34.235Z,100103.84
2023-10-09T06:54:13.092Z,100075.63
2023-10-09T06:56:44.979Z,100111.63
2023-10-09T06:58:49.301Z,100097.75
2023-10-09T07:01:00.790Z,100099.13
2023-10-09T07:03:13.004Z,100038.84
2023-10-09T07:05:19.318Z,100016.25
2023-10-09T07:07:22.408Z,100052.22
2023-10-09T07:09:25.690Z,100075.97
2023-10-09T07:11:43.003Z,100045.34
2023-10-09T07:13:54.983Z,100108.38
2023-10-09T07:16:16.336Z,100025.13
2023-10-09T07:18:25.082Z,100015.56
2023-10-09T07:20:47.098Z,100054.47
2023-10-09T07:22:58.157Z,100009.41
2023-10-09T07:25:16.327Z,99998.06
2023-10-09T07:27:19.310Z,100031.06
2023-10-09T07:29:25.489Z,100020.97
2023-10-09T07:31:41.216Z,99991.25
2023-10-09T07:33:58.680Z,100018.25
2023-10-09T07:36:09.446Z,100046.88
2023-10-09T07:38:46.640Z,100040.09
2023-10-09T07:41:01.371Z,100116.59
2023-10-09T07:43:07.154Z,100047.56
2023-10-09T07:45:22.701Z,100018.16
2023-10-09T07:47:45.870Z,100016.41
2023-10-09T07:49:55.392Z,100010.19
2023-10-09T07:52:00.620Z,100017.19
2023-10-09T07:54:10.326Z,100018.19
2023-10-09T07:56:22.336Z,99954.00
2023-10-09T07:58:26.638Z,99968.06
2023-10-09T08:00:52.142Z,99969.28
2023-10-09T08:03:02.202Z,99974.22
2023-10-09T08:05:08.686Z,99954.97
2023-10-09T08:08:02.345Z,99920.56
2023-10-09T08:10:12.952Z,99923.19
2023-10-09T08:12:17.690Z,99921.69
2023-10-09T08:14:36.086Z,99909.22
2023-10-09T08:16:38.669Z,99882.19
2023-10-09T08:18:46.548Z,99944.28
2023-10-09T08:20:58.238Z,99866.78
2023-10-09T08:23:00.834Z,99867.31
2023-10-09T08:25:04.391Z,99850.72
2023-10-09T08:27:30.896Z,99873.59
2023-10-09T08:29:36.408Z,99863.09
2023-10-09T08:31:48.487Z,99884.81
2023-10-09T08:36:09.986Z,99857.53
2023-10-09T08:38:12.889Z,99830.78
2023-10-09T08:40:22.127Z,99877.84
2023-10-09T08:42:27.385Z,99836.97
2023-10-09T08:44:35.366Z,99861.06
2023-10-09T08:46:39.891Z,99845.41
2023-10-09T08:48:43.296Z,99863.53
2023-10-09T08:50:48.685Z,99847.81
2023-10-09T08:52:53.091Z,99834.31
2023-10-09T08:54:56.017Z,99833.50
2023-10-09T08:57:00.053Z,99820.31
2023-10-09T08:59:03.796Z,99828.97
2023-10-09T09:01:06.870Z,99887.50
2023-10-09T09:03:09.917Z,99818.81
2023-10-09T09:05:22.477Z,99849.16
2023-10-09T09:07:33.348Z,99835.69
2023-10-09T09:09:37.138Z,99836.50
2023-10-09T09:11:50.523Z,99858.25
2023-10-09T09:14:08.950Z,99825.72
2023-10-09T09:16:32.959Z,99879.47
2023-10-09T09:18:53.816Z,99873.09
2023-10-09T09:20:58.286Z,99838.88
2023-10-09T09:23:03.790Z,99856.69
2023-10-09T09:25:11.879Z,99833.00
2023-10-09T09:27:16.999Z,99853.09
2023-10-09T09:29:21.711Z,99822.81
2023-10-09T09:31:24.802Z,99854.84
2023-10-09T09:33:44.436Z,99855.56
2023-10-09T09:36:04.168Z,99833.53
2023-10-09T09:38:08.965Z,99829.00
2023-10-09T09:40:35.310Z,99839.75
2023-10-09T09:42:42.551Z,99827.38
2023-10-09T09:44:50.285Z,99843.13
2023-10-09T09:46:56.805Z,99843.66
2023-10-09T09:49:03.514Z,99862.16
2023-10-09T09:51:10.144Z,99820.56
2023-10-09T09:53:21.312Z,99855.81
2023-10-09T09:55:33.019Z,99819.97
2023-10-09T09:57:41.009Z,99846.63
2023-10-09T09:59:51.829Z,99814.22
2023-10-09T10:01:58.909Z,99842.22
2023-10-09T10:04:14.621Z,99909.28
2023-10-09T10:06:21.771Z,99797.75
2023-10-09T10:08:34.958Z,99890.53
2023-10-09T10:10:39.268Z,99899.69
2023-10-09T10:13:02.826Z,99901.97
2023-10-09T10:15:18.335Z,99838.50
2023-10-09T10:17:23.646Z,99828.94
2023-10-09T10:19:26.829Z,99853.31
2023-10-09T10:21:34.291Z,99906.81
2023-10-09T10:23:38.398Z,99770.91
2023-10-09T10:25:44.397Z,99784.06
2023-10-09T10:28:40.883Z,99808.22
2023-10-09T10:30:53.803Z,99785.19
2023-10-09T10:32:59.871Z,99788.91
2023-10-09T10:35:08.183Z,99775.31
2023-10-09T10:37:13.489Z,99812.88
2023-10-09T10:39:44.962Z,99775.09
2023-10-09T10:42:01.043Z,99839.50
2023-10-09T10:44:35.538Z,99789.28
2023-10-09T10:46:45.304Z,99747.09
2023-10-09T10:48:50.705Z,99786.81
2023-10-09T10:50:59.710Z,99778.78
2023-10-09T10:53:17.536Z,99742.38
2023-10-09T10:55:32.458Z,99760.44
2023-10-09T10:58:07.377Z,99737.69
2023-10-09T11:00:36.774Z,99733.25
2023-10-09T11:02:42.408Z,99760.78
2023-10-09T11:04:55.198Z,99759.44
2023-10-09T11:07:08.246Z,99742.66
2023-10-09T11:09:23.325Z,99711.09
2023-10-09T11:11:33.647Z,99722.47
2023-10-09T11:13:38.361Z,99690.19
2023-10-09T11:15:48.138Z,99737.09
2023-10-09T11:18:00.649Z,99805.25
2023-10-09T11:20:24.218Z,99709.09
2023-10-09T11:22:29.982Z,99708.94
2023-10-09T11:24:36.654Z,99796.00
2023-10-09T11:26:41.957Z,99733.19
2023-10-09T11:28:50.480Z,99700.81
2023-10-09T11:30:56.966Z,99700.50
2023-10-09T11:33:07.787Z,99689.59
2023-10-09T11:35:19.364Z,99740.38
2023-10-09T11:37:32.657Z,99699.00
2023-10-09T11:39:36.976Z,99739.94
2023-10-09T11:41:46.052Z,99705.06
2023-10-09T11:43:53.377Z,99747.63
2023-10-09T11:46:12.827Z,99696.91
2023-10-09T11:48:35.366Z,99730.03
2023-10-09T11:51:04.011Z,99709.47
2023-10-09T11:53:11.057Z,99644.28
2023-10-09T11:55:18.487Z,99664.03
2023-10-09T11:57:30.305Z,99672.94
2023-10-09T11:59:43.838Z,99711.41
2023-10-09T12:01:54.659Z,99679.19
2023-10-09T12:03:57.626Z,99734.41
2023-10-09T12:06:13.619Z,99668.19
2023-10-09T12:08:18.233Z,99741.63
2023-10-09T12:10:26.269Z,99665.78
2023-10-09T12:12:30.010Z,99696.09
2023-10-09T12:14:35.169Z,99717.47
2023-10-09T12:16:42.157Z,99685.53
2023-10-09T12:18:51.760Z,99792.25
2023-10-09T12:20:56.852Z,99701.19
2023-10-09T12:23:02.869Z,99729.16
2023-10-09T12:25:10.938Z,99713.69
2023-10-09T12:27:14.213Z,99692.31
2023-10-09T12:29:17.172Z,99702.75
2023-10-09T12:31:25.890Z,99687.78
2023-10-09T12:33:31.309Z,99683.88
2023-10-09T12:35:42.165Z,99713.59
2023-10-09T12:37:45.374Z,99713.31
2023-10-09T12:39:49.212Z,99712.28
2023-10-09T12:41:55.207Z,99708.53
2023-10-09T12:44:01.682Z,99685.28
2023-10-09T12:46:10.266Z,99666.81
2023-10-09T12:48:14.485Z,99710.47
2023-10-09T12:50:17.361Z,99719.63
2023-10-09T12:52:21.569Z,99675.13
2023-10-09T12:54:31.894Z,99685.63
2023-10-09T12:56:39.685Z,99687.75
2023-10-09T12:59:01.534Z,99699.00
2023-10-09T13:01:14.315Z,99698.28
2023-10-09T13:03:19.196Z,99687.75
2023-10-09T13:05:27.719Z,99660.28
2023-10-09T13:07:30.331Z,99618.03
2023-10-09T13:09:45.893Z,99613.38
2023-10-09T13:11:50.292Z,99629.22
2023-10-09T13:13:53.473Z,99675.44
2023-10-09T13:15:56.783Z,99656.09
2023-10-09T13:17:59.542Z,99700.22
2023-10-09T13:20:03.015Z,99648.84
2023-10-09T13:22:14.929Z,99678.41
2023-10-09T13:24:17.626Z,99661.28
2023-10-09T13:26:32.958Z,99666.69
2023-10-09T13:28:39.372Z,99645.81
2023-10-09T13:30:50.963Z,99631.97
2023-10-09T13:32:54.242Z,99665.66
2023-10-09T13:34:57.330Z,99628.47
2023-10-09T13:37:10.852Z,99644.16
2023-10-09T13:39:28.627Z,99678.78
2023-10-09T13:41:31.232Z,99690.28
2023-10-09T13:43:34.574Z,99661.78
2023-10-09T13:45:42.511Z,99720.00
2023-10-09T13:47:47.981Z,99631.75
2023-10-09T13:49:55.285Z,99657.19
2023-10-09T13:52:04.553Z,99677.25
2023-10-09T13:54:09.104Z,99742.75
2023-10-09T13:56:16.888Z,99712.59
2023-10-09T13:58:25.497Z,99652.84
2023-10-09T14:00:35.854Z,99669.53
2023-10-09T14:02:39.692Z,99651.94
2023-10-09T14:04:42.288Z,99735.38
2023-10-09T14:06:46.595Z,99680.91
2023-10-09T14:08:49.630Z,99741.59
2023-10-09T14:10:52.335Z,99673.06
2023-10-09T14:12:57.463Z,99701.91
2023-10-09T14:15:02.223Z,99661.56
2023-10-09T14:17:13.323Z,99651.03
2023-10-09T14:19:16.246Z,99642.69
2023-10-09T14:21:19.936Z,99692.66
2023-10-09T14:23:22.668Z,99672.38
2023-10-09T14:25:25.543Z,99627.69
2023-10-09T14:27:31.551Z,99612.81
2023-10-09T14:29:34.085Z,99638.81
2023-10-09T14:31:40.512Z,99602.72
2023-10-09T14:33:44.906Z,99667.09
2023-10-09T14:35:48.012Z,99644.22
2023-10-09T14:37:51.144Z,99691.25
2023-10-09T14:39:54.633Z,99620.53
2023-10-09T14:41:59.129Z,99714.34
2023-10-09T14:44:02.837Z,99669.56
2023-10-09T14:46:12.259Z,99651.38
2023-10-09T14:48:16.405Z,99643.28
2023-10-09T14:50:23.882Z,99680.81
2023-10-09T14:52:29.061Z,99633.19
2023-10-09T14:54:31.765Z,99670.94
2023-10-09T14:56:38.316Z,99640.09
2023-10-09T14:58:41.617Z,99688.94
2023-10-09T15:00:48.341Z,99699.25
2023-10-09T15:02:54.706Z,99679.88
2023-10-09T15:04:58.862Z,99717.78
2023-10-09T15:07:03.210Z,99676.84
2023-10-09T15:09:23.270Z,99739.94
2023-10-09T15:11:27.887Z,99711.56
2023-10-09T15:13:32.436Z,99802.75
2023-10-09T15:15:35.267Z,99706.63
2023-10-09T15:17:38.318Z,99699.94
2023-10-09T15:19:41.340Z,99712.84
2023-10-09T15:21:47.702Z,99693.13
2023-10-09T15:23:52.945Z,99718.59
2023-10-09T15:25:56.384Z,99682.94
2023-10-09T15:27:59.601Z,99736.88
2023-10-09T15:30:02.402Z,99686.91
2023-10-09T15:32:15.966Z,99721.66
2023-10-09T15:34:20.214Z,99747.81
2023-10-09T15:36:24.745Z,99736.19
2023-10-09T15:38:27.701Z,99709.19
2023-10-09T15:40:37.236Z,99727.16
2023-10-09T15:42:40.007Z,99718.13
2023-10-09T15:44:43.633Z,99735.13
2023-10-09T15:46:49.322Z,99716.59
2023-10-09T15:48:54.350Z,99720.47
2023-10-09T15:50:57.105Z,99738.91
2023-10-09T15:53:00.310Z,99706.84
2023-10-09T15:55:03.574Z,99760.63
2023-10-09T15:57:13.077Z,99726.81
2023-10-09T15:59:18.486Z,99757.66
2023-10-09T16:01:21.595Z,99778.09
2023-10-09T16:03:26.155Z,99710.59
2023-10-09T16:05:30.483Z,99729.03
2023-10-09T16:07:33.476Z,99720.25
2023-10-09T16:09:40.763Z,99783.03
2023-10-09T16:11:46.274Z,99750.50
2023-10-09T16:13:48.969Z,99721.16
2023-10-09T16:15:51.912Z,99814.16
2023-10-09T16:18:05.371Z,99764.72
2023-10-09T16:20:15.714Z,99727.75
2023-10-09T16:22:19.526Z,99761.19
2023-10-09T16:24:22.192Z,99727.63
2023-10-09T16:26:25.992Z,99740.06
2023-10-09T16:28:29.969Z,99719.66
2023-10-09T16:30:32.573Z,99740.78
2023-10-09T16:32:35.632Z,99727.84
2023-10-09T16:34:40.700Z,99748.41
2023-10-09T16:36:43.610Z,99719.06
2023-10-09T16:38:48.201Z,99776.78
2023-10-09T16:40:56.268Z,99765.88
2023-10-09T16:43:02.928Z,99775.63
2023-10-09T16:45:10.529Z,99795.81
2023-10-09T16:47:13.365Z,99744.44
2023-10-09T16:49:16.108Z,99774.44
2023-10-09T16:51:23.756Z,99768.56
2023-10-09T16:53:27.276Z,99792.78
2023-10-09T16:55:32.130Z,99774.69
2023-10-09T16:57:36.364Z,99809.47
2023-10-09T16:59:40.293Z,99856.69
2023-10-09T17:01:46.555Z,99771.16
2023-10-09T17:03:56.599Z,99806.41
2023-10-09T17:06:00.116Z,99878.06
2023-10-09T17:08:11.505Z,99788.78
2023-10-09T17:10:17.508Z,99858.09
2023-10-09T17:12:20.373Z,99826.34
2023-10-09T17:14:28.064Z,99817.88
2023-10-09T17:16:32.653Z,99810.16
2023-10-09T17:18:36.161Z,99816.03
2023-10-09T17:20:50.291Z,99806.59
2023-10-09T17:22:53.310Z,99834.59
2023-10-09T17:24:56.179Z,99855.25
2023-10-09T17:26:59.468Z,99808.03
2023-10-09T17:29:02.740Z,99793.25
2023-10-09T17:31:06.186Z,99771.84
2023-10-09T17:33:09.618Z,99810.16
2023-10-09T17:35:14.213Z,99822.34
2023-10-09T17:37:17.010Z,99804.63
2023-10-09T17:39:27.786Z,99798.16
2023-10-09T17:41:32.236Z,99786.44
2023-10-09T17:43:34.755Z,99782.34
2023-10-09T17:45:42.936Z,99830.34
2023-10-09T17:47:47.015Z,99822.00
2023-10-09T17:49:50.340Z,99829.53
2023-10-09T17:51:55.026Z,99832.00
2023-10-09T17:53:59.216Z,99791.94
2023-10-09T17:56:02.132Z,99819.31
2023-10-09T17:58:08.567Z,99813.91
2023-10-09T18:00:23.939Z,99816.50
2023-10-09T18:02:29.822Z,99801.81
2023-10-09T18:04:36.992Z,99791.50
2023-10-09T18:06:41.366Z,99794.53
2023-10-09T18:08:44.331Z,99853.88
2023-10-09T18:10:47.143Z,99804.97
2023-10-09T18:12:51.334Z,99796.06
2023-10-09T18:15:01.256Z,99770.00
2023-10-09T18:17:04.568Z,99801.69
2023-10-09T18:19:08.893Z,99841.16
2023-10-09T18:21:12.304Z,99857.00
2023-10-09T18:23:15.328Z,99789.38
2023-10-09T18:25:20.367Z,99782.91
2023-10-09T18:27:24.257Z,99786.22
2023-10-09T18:29:27.316Z,99775.38
2023-10-09T18:31:30.744Z,99807.81
2023-10-09T18:33:34.734Z,99810.84
2023-10-09T18:35:40.003Z,99801.22
2023-10-09T18:37:43.183Z,99878.19
2023-10-09T18:39:48.442Z,99851.47
2023-10-09T18:41:55.755Z,99804.38
2023-10-09T18:44:01.356Z,99838.31
2023-10-09T18:46:11.112Z,99833.50
2023-10-09T18:48:14.137Z,99831.06
2023-10-09T18:50:18.161Z,99860.53
2023-10-09T18:52:21.974Z,99824.94
2023-10-09T18:54:25.781Z,99826.09
2023-10-09T18:56:30.023Z,99807.56
2023-10-09T18:58:33.421Z,99869.09
2023-10-09T19:00:42.862Z,99808.94
2023-10-09T19:02:45.678Z,99832.69
2023-10-09T19:04:49.034Z,99819.78
2023-10-09T19:06:55.452Z,99845.34
2023-10-09T19:09:00.169Z,99839.59
2023-10-09T19:11:10.962Z,99825.28
2023-10-09T19:13:15.831Z,99797.66
2023-10-09T19:15:20.300Z,99871.53
2023-10-09T19:17:23.314Z,99819.97
2023-10-09T19:19:26.926Z,99830.63
2023-10-09T19:21:31.077Z,99840.75
2023-10-09T19:23:34.881Z,99831.94
2023-10-09T19:25:38.248Z,99850.03
2023-10-09T19:27:40.843Z,99840.50
2023-10-09T19:29:47.384Z,99907.13
2023-10-09T19:31:52.481Z,99844.25
2023-10-09T19:33:55.966Z,99855.41
2023-10-09T19:36:13.419Z,99854.91
2023-10-09T19:38:17.870Z,99829.75
2023-10-09T19:40:23.208Z,99839.72
2023-10-09T19:42:26.517Z,99831.13
2023-10-09T19:44:30.327Z,99833.59
2023-10-09T19:46:34.968Z,99919.19
2023-10-09T19:48:38.022Z,99846.72
2023-10-09T19:50:41.222Z,99877.88
2023-10-09T19:52:52.137Z,99912.25
2023-10-09T19:54:57.846Z,99808.63
2023-10-09T19:57:00.767Z,99841.59
2023-10-09T19:59:03.544Z,99864.63
2023-10-09T20:01:09.331Z,99853.13
2023-10-09T20:03:12.976Z,99853.56
2023-10-09T20:05:17.386Z,99835.72
2023-10-09T20:07:20.889Z,99825.84
2023-10-09T20:09:23.739Z,99821.38
2023-10-09T20:11:26.893Z,99794.50
2023-10-09T20:13:29.698Z,99772.84
2023-10-09T20:15:35.344Z,99887.28
2023-10-09T20:17:38.634Z,99892.31
2023-10-09T20:19:41.753Z,99876.88
2023-10-09T20:21:45.110Z,99859.91
2023-10-09T20:23:49.992Z,99855.56
2023-10-09T20:26:06.803Z,99878.69
2023-10-09T20:28:12.352Z,99839.56
2023-10-09T20:30:16.286Z,99869.59
2023-10-09T20:32:21.283Z,99843.13
2023-10-09T20:34:26.477Z,99822.28
2023-10-09T20:36:30.110Z,99883.53
2023-10-09T20:38:32.757Z,99869.41
2023-10-09T20:40:36.859Z,99866.38
2023-10-09T20:42:40.205Z,99853.44
2023-10-09T20:44:44.215Z,99871.72
2023-10-09T20:46:49.927Z,99852.44
2023-10-09T20:48:52.816Z,99868.56
2023-10-09T20:50:55.557Z,99935.94
2023-10-09T20:52:59.024Z,99875.03
2023-10-09T20:55:03.130Z,99879.97
2023-10-09T20:57:06.145Z,99868.81
2023-10-09T20:59:10.193Z,99880.00
2023-10-09T21:01:16.751Z,99884.44
2023-10-09T21:03:21.328Z,99871.72
2023-10-09T21:05:26.845Z,99835.44
2023-10-09T21:07:31.953Z,99884.91
2023-10-09T21:09:36.453Z,99876.41
2023-10-09T21:11:39.295Z,99848.72
2023-10-09T21:13:42.143Z,99873.00
2023-10-09T21:15:47.340Z,99949.56
2023-10-09T21:17:53.826Z,99954.28
2023-10-09T21:19:56.510Z,99871.38
2023-10-09T21:21:59.267Z,99888.63
2023-10-09T21:24:01.938Z,99910.97
2023-10-09T21:26:05.244Z,99939.56
2023-10-09T21:28:08.721Z,99977.31
2023-10-09T21:30:12.755Z,99860.66
2023-10-09T21:32:15.408Z,99903.94
2023-10-09T21:34:18.317Z,99887.59
2023-10-09T21:36:21.515Z,99878.78
2023-10-09T21:38:26.225Z,99882.66
2023-10-09T21:40:30.447Z,99899.47
2023-10-09T21:42:33.955Z,99929.53
2023-10-09T21:44:36.905Z,99874.06
2023-10-09T21:46:39.314Z,99900.63
2023-10-09T21:48:44.373Z,99963.91
2023-10-09T21:50:47.069Z,99979.63
2023-10-09T21:52:49.893Z,99894.41
2023-10-09T21:54:53.253Z,99940.41
2023-10-09T21:56:55.837Z,99892.88
2023-10-09T21:58:58.462Z,99869.94
2023-10-09T22:01:03.834Z,99886.88
2023-10-09T22:03:12.764Z,99900.75
2023-10-09T22:05:16.195Z,99866.69
2023-10-09T22:07:31.404Z,99897.66
2023-10-09T22:09:35.141Z,99890.97
2023-10-09T22:11:37.964Z,99907.84
2023-10-09T22:13:40.578Z,99888.56
2023-10-09T22:15:47.100Z,99925.59
2023-10-09T22:17:50.639Z,99925.22
2023-10-09T22:19:55.282Z,99924.75
2023-10-09T22:21:58.131Z,99874.00
2023-10-09T22:24:00.575Z,99897.06
2023-10-09T22:26:03.609Z,99889.75
2023-10-09T22:28:10.652Z,99952.09
2023-10-09T22:30:14.486Z,99993.94
2023-10-09T22:32:18.635Z,99896.56
2023-10-09T22:34:21.478Z,99912.81
2023-10-09T22:36:37.958Z,99894.28
2023-10-09T22:38:52.405Z,99906.25
2023-10-09T22:40:55.305Z,99850.88
2023-10-09T22:42:57.972Z,99905.19
2023-10-09T22:45:00.849Z,99867.22
2023-10-09T22:47:09.684Z,99895.19
2023-10-09T22:49:16.270Z,99861.78
2023-10-09T22:51:26.038Z,99893.28
2023-10-09T22:53:39.717Z,99868.53
2023-10-09T22:55:52.270Z,99888.47
2023-10-09T22:57:58.037Z,99950.13
2023-10-09T23:00:02.002Z,99891.34
2023-10-09T23:02:06.575Z,99897.22
2023-10-09T23:04:15.665Z,99899.50
2023-10-09T23:06:20.712Z,99878.59
2023-10-09T23:08:23.803Z,99912.78
2023-10-09T23:10:26.243Z,99903.16
2023-10-09T23:12:36.553Z,99922.84
2023-10-09T23:14:41.241Z,99873.13
2023-10-09T23:16:50.508Z,99888.31
2023-10-09T23:19:15.572Z,99911.63
2023-10-09T23:21:22.706Z,99866.88
2023-10-09T23:23:28.704Z,99937.63
2023-10-09T23:25:35.047Z,99912.09
2023-10-09T23:27:39.563Z,99963.16
2023-10-09T23:29:53.210Z,99963.97
2023-10-09T23:32:15.634Z,99940.91
2023-10-09T23:34:21.528Z,99912.94
2023-10-09T23:36:28.459Z,99962.72
2023-10-09T23:38:57.408Z,99997.66
2023-10-09T23:41:05.679Z,99937.50
2023-10-09T23:43:32.330Z,100003.28
2023-10-09T23:45:35.194Z,99965.00
2023-10-09T23:47:42.753Z,99918.81
2023-10-09T23:49:45.722Z,99935.31
2023-10-09T23:51:56.009Z,99916.38
2023-10-09T23:54:02.998Z,99932.03
2023-10-09T23:56:11.941Z,99895.06
2023-10-09T23:58:19.531Z,99929.88
